sensor_id;sensor_type;location;lat;lon;timestamp;pressure;altitude;pressure_sealevel;temperature;humidity
78717;BME280;68045;50.042;14.432;2024-03-22T00:00:03;98909.16;;;10.11;69.18
78717;BME280;68045;50.042;14.432;2024-03-22T00:04:33;98915.81;;;10.13;68.50
78717;BME280;68045;50.042;14.432;2024-03-22T00:08:33;98929.63;;;10.15;68.80
78717;BME280;68045;50.042;14.432;2024-03-22T00:12:34;98914.56;;;10.29;68.36
78717;BME280;68045;50.042;14.432;2024-03-22T00:16:36;98912.22;;;10.46;67.48
78717;BME280;68045;50.042;14.432;2024-03-22T00:20:37;98904.19;;;10.66;67.23
78717;BME280;68045;50.042;14.432;2024-03-22T00:24:38;98902.81;;;10.57;66.66
78717;BME280;68045;50.042;14.432;2024-03-22T00:28:40;98908.09;;;10.57;66.66
78717;BME280;68045;50.042;14.432;2024-03-22T00:32:42;98905.03;;;10.60;67.06
78717;BME280;68045;50.042;14.432;2024-03-22T00:36:45;98899.72;;;10.66;66.32
78717;BME280;68045;50.042;14.432;2024-03-22T00:40:46;98904.00;;;10.61;67.18
78717;BME280;68045;50.042;14.432;2024-03-22T00:44:47;98896.00;;;10.42;67.99
78717;BME280;68045;50.042;14.432;2024-03-22T00:48:48;98899.56;;;10.30;68.86
78717;BME280;68045;50.042;14.432;2024-03-22T00:52:50;98890.44;;;10.19;68.98
78717;BME280;68045;50.042;14.432;2024-03-22T00:56:52;98887.22;;;10.24;69.16
78717;BME280;68045;50.042;14.432;2024-03-22T01:00:54;98887.09;;;10.43;68.68
78717;BME280;68045;50.042;14.432;2024-03-22T01:04:55;98877.44;;;10.56;68.24
78717;BME280;68045;50.042;14.432;2024-03-22T01:08:56;98867.97;;;10.73;67.28
78717;BME280;68045;50.042;14.432;2024-03-22T01:12:57;98879.81;;;10.64;67.30
78717;BME280;68045;50.042;14.432;2024-03-22T01:16:58;98868.78;;;10.73;67.11
78717;BME280;68045;50.042;14.432;2024-03-22T01:20:59;98875.03;;;10.79;67.09
78717;BME280;68045;50.042;14.432;2024-03-22T01:25:00;98878.69;;;10.78;67.42
78717;BME280;68045;50.042;14.432;2024-03-22T01:29:02;98884.06;;;10.90;67.45
78717;BME280;68045;50.042;14.432;2024-03-22T01:33:03;98876.31;;;10.95;67.05
78717;BME280;68045;50.042;14.432;2024-03-22T01:37:04;98887.03;;;11.00;66.48
78717;BME280;68045;50.042;14.432;2024-03-22T01:41:06;98877.28;;;11.00;66.46
78717;BME280;68045;50.042;14.432;2024-03-22T01:45:07;98872.22;;;10.74;66.69
78717;BME280;68045;50.042;14.432;2024-03-22T01:49:09;98865.25;;;10.30;68.36
78717;BME280;68045;50.042;14.432;2024-03-22T01:53:10;98871.88;;;10.39;67.79
78717;BME280;68045;50.042;14.432;2024-03-22T01:57:11;98862.22;;;10.19;68.77
78717;BME280;68045;50.042;14.432;2024-03-22T02:01:13;98864.81;;;10.33;68.73
78717;BME280;68045;50.042;14.432;2024-03-22T02:05:14;98855.56;;;10.17;69.15
78717;BME280;68045;50.042;14.432;2024-03-22T02:09:17;98848.53;;;10.04;69.51
78717;BME280;68045;50.042;14.432;2024-03-22T02:13:18;98843.44;;;10.09;70.07
78717;BME280;68045;50.042;14.432;2024-03-22T02:17:19;98834.72;;;10.09;69.73
78717;BME280;68045;50.042;14.432;2024-03-22T02:21:20;98825.41;;;10.00;69.60
78717;BME280;68045;50.042;14.432;2024-03-22T02:25:21;98825.22;;;10.01;69.92
78717;BME280;68045;50.042;14.432;2024-03-22T02:29:22;98817.66;;;10.11;69.96
78717;BME280;68045;50.042;14.432;2024-03-22T02:33:23;98814.25;;;10.04;69.51
78717;BME280;68045;50.042;14.432;2024-03-22T02:37:25;98801.13;;;9.91;70.01
78717;BME280;68045;50.042;14.432;2024-03-22T02:41:26;98798.28;;;9.93;70.27
78717;BME280;68045;50.042;14.432;2024-03-22T02:45:27;98780.34;;;9.76;71.27
78717;BME280;68045;50.042;14.432;2024-03-22T02:49:28;98780.56;;;9.75;71.81
78717;BME280;68045;50.042;14.432;2024-03-22T02:53:29;98783.06;;;9.56;72.78
78717;BME280;68045;50.042;14.432;2024-03-22T02:57:31;98771.19;;;9.41;73.77
78717;BME280;68045;50.042;14.432;2024-03-22T03:01:32;98768.03;;;9.25;74.51
78717;BME280;68045;50.042;14.432;2024-03-22T03:05:33;98766.84;;;9.15;75.41
78717;BME280;68045;50.042;14.432;2024-03-22T03:09:35;98770.09;;;9.17;75.55
78717;BME280;68045;50.042;14.432;2024-03-22T03:13:36;98757.91;;;9.16;75.56
78717;BME280;68045;50.042;14.432;2024-03-22T03:17:37;98754.09;;;9.12;76.48
78717;BME280;68045;50.042;14.432;2024-03-22T03:21:39;98738.09;;;9.06;76.04
78717;BME280;68045;50.042;14.432;2024-03-22T03:25:40;98750.66;;;9.11;76.10
78717;BME280;68045;50.042;14.432;2024-03-22T03:29:41;98733.84;;;9.05;76.60
78717;BME280;68045;50.042;14.432;2024-03-22T03:33:42;98733.53;;;8.89;77.65
78717;BME280;68045;50.042;14.432;2024-03-22T03:37:43;98730.69;;;8.90;77.65
78717;BME280;68045;50.042;14.432;2024-03-22T03:41:44;98739.41;;;8.84;78.04
78717;BME280;68045;50.042;14.432;2024-03-22T03:45:45;98739.94;;;8.99;77.13
78717;BME280;68045;50.042;14.432;2024-03-22T03:49:46;98738.78;;;8.95;77.54
78717;BME280;68045;50.042;14.432;2024-03-22T03:53:48;98739.19;;;8.86;78.49
78717;BME280;68045;50.042;14.432;2024-03-22T03:57:50;98729.47;;;8.86;79.00
78717;BME280;68045;50.042;14.432;2024-03-22T04:01:51;98739.41;;;8.77;79.43
78717;BME280;68045;50.042;14.432;2024-03-22T04:05:56;98728.88;;;8.84;79.41
78717;BME280;68045;50.042;14.432;2024-03-22T04:09:57;98724.59;;;8.90;79.23
78717;BME280;68045;50.042;14.432;2024-03-22T04:14:00;98715.47;;;8.92;79.11
78717;BME280;68045;50.042;14.432;2024-03-22T04:18:01;98723.84;;;8.76;80.47
78717;BME280;68045;50.042;14.432;2024-03-22T04:22:03;98731.94;;;8.74;80.40
78717;BME280;68045;50.042;14.432;2024-03-22T04:26:04;98732.56;;;8.70;80.57
78717;BME280;68045;50.042;14.432;2024-03-22T04:30:06;98722.84;;;8.64;81.06
78717;BME280;68045;50.042;14.432;2024-03-22T04:34:07;98727.53;;;8.55;81.39
78717;BME280;68045;50.042;14.432;2024-03-22T04:38:10;98719.00;;;8.60;81.46
78717;BME280;68045;50.042;14.432;2024-03-22T04:42:11;98718.41;;;8.44;81.44
78717;BME280;68045;50.042;14.432;2024-03-22T04:46:13;98729.94;;;8.50;80.96
78717;BME280;68045;50.042;14.432;2024-03-22T04:50:14;98739.06;;;8.54;80.24
78717;BME280;68045;50.042;14.432;2024-03-22T04:54:15;98726.28;;;8.58;80.23
78717;BME280;68045;50.042;14.432;2024-03-22T04:58:18;98727.53;;;8.55;79.48
78717;BME280;68045;50.042;14.432;2024-03-22T05:02:20;98727.91;;;8.59;78.76
78717;BME280;68045;50.042;14.432;2024-03-22T05:06:21;98727.50;;;8.62;78.08
78717;BME280;68045;50.042;14.432;2024-03-22T05:10:22;98726.69;;;8.61;79.18
78717;BME280;68045;50.042;14.432;2024-03-22T05:14:23;98718.63;;;8.43;79.17
78717;BME280;68045;50.042;14.432;2024-03-22T05:18:24;98714.78;;;8.45;78.94
78717;BME280;68045;50.042;14.432;2024-03-22T05:22:25;98721.03;;;8.44;78.69
78717;BME280;68045;50.042;14.432;2024-03-22T05:26:26;98727.97;;;8.39;78.37
78717;BME280;68045;50.042;14.432;2024-03-22T05:30:27;98723.88;;;8.43;78.52
78717;BME280;68045;50.042;14.432;2024-03-22T05:34:29;98725.09;;;8.27;78.44
78717;BME280;68045;50.042;14.432;2024-03-22T05:38:30;98721.88;;;8.25;78.07
78717;BME280;68045;50.042;14.432;2024-03-22T05:42:32;98726.28;;;8.31;78.16
78717;BME280;68045;50.042;14.432;2024-03-22T05:46:33;98728.34;;;8.42;78.03
78717;BME280;68045;50.042;14.432;2024-03-22T05:50:34;98719.22;;;8.45;78.11
78717;BME280;68045;50.042;14.432;2024-03-22T05:54:36;98716.81;;;8.43;78.15
78717;BME280;68045;50.042;14.432;2024-03-22T05:58:37;98720.81;;;8.59;77.58
78717;BME280;68045;50.042;14.432;2024-03-22T06:02:38;98718.81;;;8.55;78.00
78717;BME280;68045;50.042;14.432;2024-03-22T06:06:40;98715.56;;;8.52;77.60
78717;BME280;68045;50.042;14.432;2024-03-22T06:10:41;98723.66;;;8.58;77.64
78717;BME280;68045;50.042;14.432;2024-03-22T06:14:42;98718.63;;;8.49;77.34
78717;BME280;68045;50.042;14.432;2024-03-22T06:18:45;98719.63;;;8.48;77.61
78717;BME280;68045;50.042;14.432;2024-03-22T06:22:46;98713.56;;;8.35;78.29
78717;BME280;68045;50.042;14.432;2024-03-22T06:26:48;98717.19;;;8.60;76.66
78717;BME280;68045;50.042;14.432;2024-03-22T06:30:50;98717.59;;;8.64;75.85
78717;BME280;68045;50.042;14.432;2024-03-22T06:34:51;98711.47;;;8.76;75.71
78717;BME280;68045;50.042;14.432;2024-03-22T06:38:52;98706.19;;;8.90;74.54
78717;BME280;68045;50.042;14.432;2024-03-22T06:42:54;98702.38;;;9.30;73.18
78717;BME280;68045;50.042;14.432;2024-03-22T06:46:55;98712.44;;;9.40;72.37
78717;BME280;68045;50.042;14.432;2024-03-22T06:50:56;98700.13;;;9.66;71.85
78717;BME280;68045;50.042;14.432;2024-03-22T06:54:57;98703.75;;;9.64;70.23
78717;BME280;68045;50.042;14.432;2024-03-22T06:58:58;98690.75;;;10.26;69.33
78717;BME280;68045;50.042;14.432;2024-03-22T07:03:01;98692.97;;;10.84;66.54
78717;BME280;68045;50.042;14.432;2024-03-22T07:07:03;98688.50;;;11.33;64.67
78717;BME280;68045;50.042;14.432;2024-03-22T07:11:05;98690.13;;;11.34;64.15
78717;BME280;68045;50.042;14.432;2024-03-22T07:15:07;98672.75;;;11.68;62.04
78717;BME280;68045;50.042;14.432;2024-03-22T07:19:08;98673.28;;;11.89;61.13
78717;BME280;68045;50.042;14.432;2024-03-22T07:23:09;98683.41;;;12.03;60.08
78717;BME280;68045;50.042;14.432;2024-03-22T07:27:10;98675.25;;;11.93;60.28
78717;BME280;68045;50.042;14.432;2024-03-22T07:31:11;98673.97;;;11.96;61.06
78717;BME280;68045;50.042;14.432;2024-03-22T07:35:13;98662.94;;;11.87;61.26
78717;BME280;68045;50.042;14.432;2024-03-22T07:39:14;98662.69;;;12.59;58.70
78717;BME280;68045;50.042;14.432;2024-03-22T07:43:15;98658.81;;;12.38;59.33
78717;BME280;68045;50.042;14.432;2024-03-22T07:47:17;98663.28;;;13.01;58.36
78717;BME280;68045;50.042;14.432;2024-03-22T07:51:19;98652.31;;;13.38;56.99
78717;BME280;68045;50.042;14.432;2024-03-22T07:55:22;98645.88;;;13.62;56.01
78717;BME280;68045;50.042;14.432;2024-03-22T07:59:23;98648.38;;;14.41;53.86
78717;BME280;68045;50.042;14.432;2024-03-22T08:03:24;98650.22;;;15.28;51.16
78717;BME280;68045;50.042;14.432;2024-03-22T08:07:25;98637.00;;;16.40;47.93
78717;BME280;68045;50.042;14.432;2024-03-22T08:11:27;98643.56;;;16.69;46.47
78717;BME280;68045;50.042;14.432;2024-03-22T08:15:27;98631.31;;;20.82;37.53
78717;BME280;68045;50.042;14.432;2024-03-22T08:19:29;98625.63;;;21.26;35.54
78717;BME280;68045;50.042;14.432;2024-03-22T08:23:30;98619.66;;;23.46;32.32
78717;BME280;68045;50.042;14.432;2024-03-22T08:27:31;98611.66;;;21.29;35.14
78717;BME280;68045;50.042;14.432;2024-03-22T08:31:32;98615.28;;;20.00;37.03
78717;BME280;68045;50.042;14.432;2024-03-22T08:35:34;98621.09;;;24.19;29.28
78717;BME280;68045;50.042;14.432;2024-03-22T08:39:35;98609.47;;;22.98;30.58
78717;BME280;68045;50.042;14.432;2024-03-22T08:43:36;98616.44;;;22.99;30.78
78717;BME280;68045;50.042;14.432;2024-03-22T08:47:37;98618.09;;;25.17;26.75
78717;BME280;68045;50.042;14.432;2024-03-22T08:51:39;98618.97;;;21.24;33.14
78717;BME280;68045;50.042;14.432;2024-03-22T08:55:47;98602.22;;;21.97;32.06
78717;BME280;68045;50.042;14.432;2024-03-22T08:59:48;98609.56;;;22.24;31.63
78717;BME280;68045;50.042;14.432;2024-03-22T09:03:49;98598.41;;;20.76;34.84
78717;BME280;68045;50.042;14.432;2024-03-22T09:07:51;98581.41;;;21.56;33.81
78717;BME280;68045;50.042;14.432;2024-03-22T09:11:55;98571.47;;;23.67;30.64
78717;BME280;68045;50.042;14.432;2024-03-22T09:15:59;98575.16;;;21.61;32.04
78717;BME280;68045;50.042;14.432;2024-03-22T09:20:00;98561.84;;;20.38;35.34
78717;BME280;68045;50.042;14.432;2024-03-22T09:24:02;98560.91;;;19.99;36.19
78717;BME280;68045;50.042;14.432;2024-03-22T09:28:04;98565.00;;;19.92;35.94
78717;BME280;68045;50.042;14.432;2024-03-22T09:32:05;98562.94;;;22.15;32.03
78717;BME280;68045;50.042;14.432;2024-03-22T09:36:07;98558.72;;;23.58;29.67
78717;BME280;68045;50.042;14.432;2024-03-22T09:40:09;98549.44;;;25.10;27.51
78717;BME280;68045;50.042;14.432;2024-03-22T09:44:13;98543.00;;;23.07;29.99
78717;BME280;68045;50.042;14.432;2024-03-22T09:48:19;98546.94;;;20.93;33.06
78717;BME280;68045;50.042;14.432;2024-03-22T09:52:21;98542.09;;;19.46;35.98
78717;BME280;68045;50.042;14.432;2024-03-22T09:56:24;98542.09;;;20.05;35.41
78717;BME280;68045;50.042;14.432;2024-03-22T10:00:27;98534.94;;;20.24;34.02
78717;BME280;68045;50.042;14.432;2024-03-22T10:09:58;98546.00;;;18.91;36.23
78717;BME280;68045;50.042;14.432;2024-03-22T10:14:00;98534.00;;;18.83;37.14
78717;BME280;68045;50.042;14.432;2024-03-22T10:18:01;98539.69;;;18.72;37.62
78717;BME280;68045;50.042;14.432;2024-03-22T10:22:05;98514.16;;;19.87;36.02
78717;BME280;68045;50.042;14.432;2024-03-22T10:26:07;98508.25;;;20.56;33.28
78717;BME280;68045;50.042;14.432;2024-03-22T10:30:09;98513.75;;;19.45;30.87
78717;BME280;68045;50.042;14.432;2024-03-22T10:34:11;98507.19;;;18.93;32.88
78717;BME280;68045;50.042;14.432;2024-03-22T10:38:14;98511.88;;;18.67;33.79
78717;BME280;68045;50.042;14.432;2024-03-22T10:42:15;98513.56;;;17.73;33.96
78717;BME280;68045;50.042;14.432;2024-03-22T10:46:19;98495.66;;;17.53;34.36
78717;BME280;68045;50.042;14.432;2024-03-22T10:50:22;98495.94;;;17.62;35.23
78717;BME280;68045;50.042;14.432;2024-03-22T10:54:28;98493.97;;;18.03;34.77
78717;BME280;68045;50.042;14.432;2024-03-22T10:58:31;98485.88;;;25.04;25.65
78717;BME280;68045;50.042;14.432;2024-03-22T11:02:32;98478.91;;;25.67;22.67
78717;BME280;68045;50.042;14.432;2024-03-22T11:06:33;98472.06;;;23.65;25.42
78717;BME280;68045;50.042;14.432;2024-03-22T11:10:35;98468.31;;;22.77;26.84
78717;BME280;68045;50.042;14.432;2024-03-22T11:14:37;98471.69;;;21.91;27.61
78717;BME280;68045;50.042;14.432;2024-03-22T11:18:38;98465.69;;;21.20;29.26
78717;BME280;68045;50.042;14.432;2024-03-22T11:22:39;98461.84;;;19.70;31.30
78717;BME280;68045;50.042;14.432;2024-03-22T11:26:42;98444.81;;;21.63;29.21
78717;BME280;68045;50.042;14.432;2024-03-22T11:30:45;98434.84;;;24.93;24.90
78717;BME280;68045;50.042;14.432;2024-03-22T11:34:46;98440.97;;;24.07;25.80
78717;BME280;68045;50.042;14.432;2024-03-22T11:38:47;98432.94;;;25.20;23.63
78717;BME280;68045;50.042;14.432;2024-03-22T11:42:56;98420.53;;;24.24;25.16
78717;BME280;68045;50.042;14.432;2024-03-22T11:46:58;98445.88;;;23.26;26.25
78717;BME280;68045;50.042;14.432;2024-03-22T11:50:59;98418.56;;;21.88;29.23
78717;BME280;68045;50.042;14.432;2024-03-22T11:55:02;98409.03;;;23.83;26.95
78717;BME280;68045;50.042;14.432;2024-03-22T11:59:06;98405.81;;;23.33;27.42
78717;BME280;68045;50.042;14.432;2024-03-22T12:03:07;98387.53;;;20.75;31.23
78717;BME280;68045;50.042;14.432;2024-03-22T12:07:10;98382.53;;;19.21;33.58
78717;BME280;68045;50.042;14.432;2024-03-22T12:11:13;98384.31;;;19.55;33.72
78717;BME280;68045;50.042;14.432;2024-03-22T12:15:14;98387.50;;;17.87;36.95
78717;BME280;68045;50.042;14.432;2024-03-22T12:19:15;98375.03;;;17.56;36.94
78717;BME280;68045;50.042;14.432;2024-03-22T12:23:17;98371.75;;;18.29;36.53
78717;BME280;68045;50.042;14.432;2024-03-22T12:27:18;98371.09;;;18.08;36.70
78717;BME280;68045;50.042;14.432;2024-03-22T12:31:19;98350.19;;;19.42;34.93
78717;BME280;68045;50.042;14.432;2024-03-22T12:35:21;98341.31;;;19.70;34.66
78717;BME280;68045;50.042;14.432;2024-03-22T12:39:22;98333.16;;;19.33;35.02
78717;BME280;68045;50.042;14.432;2024-03-22T12:43:22;98348.66;;;18.83;35.99
78717;BME280;68045;50.042;14.432;2024-03-22T12:47:24;98323.38;;;18.31;37.13
78717;BME280;68045;50.042;14.432;2024-03-22T12:51:25;98321.00;;;18.24;37.42
78717;BME280;68045;50.042;14.432;2024-03-22T12:55:27;98309.66;;;18.08;38.15
78717;BME280;68045;50.042;14.432;2024-03-22T12:59:29;98300.50;;;19.60;35.39
78717;BME280;68045;50.042;14.432;2024-03-22T13:03:32;98301.03;;;21.11;32.33
78717;BME280;68045;50.042;14.432;2024-03-22T13:07:34;98297.75;;;21.14;31.86
78717;BME280;68045;50.042;14.432;2024-03-22T13:11:35;98291.56;;;22.05;30.22
78717;BME280;68045;50.042;14.432;2024-03-22T13:15:36;98292.22;;;21.52;31.40
78717;BME280;68045;50.042;14.432;2024-03-22T13:19:38;98298.72;;;22.23;30.01
78717;BME280;68045;50.042;14.432;2024-03-22T13:23:39;98275.50;;;23.95;26.94
78717;BME280;68045;50.042;14.432;2024-03-22T13:27:40;98276.97;;;20.92;31.45
78717;BME280;68045;50.042;14.432;2024-03-22T13:31:43;98271.53;;;21.52;30.76
78717;BME280;68045;50.042;14.432;2024-03-22T13:35:45;98260.13;;;23.69;26.89
78717;BME280;68045;50.042;14.432;2024-03-22T13:39:49;98254.47;;;24.70;25.84
78717;BME280;68045;50.042;14.432;2024-03-22T13:43:50;98231.72;;;22.66;27.66
78717;BME280;68045;50.042;14.432;2024-03-22T13:47:52;98255.00;;;21.59;29.31
78717;BME280;68045;50.042;14.432;2024-03-22T13:51:54;98234.66;;;21.03;30.64
78717;BME280;68045;50.042;14.432;2024-03-22T13:55:55;98228.19;;;20.90;30.56
78717;BME280;68045;50.042;14.432;2024-03-22T13:59:56;98213.81;;;19.51;33.07
78717;BME280;68045;50.042;14.432;2024-03-22T14:03:57;98225.84;;;19.91;32.01
78717;BME280;68045;50.042;14.432;2024-03-22T14:08:01;98224.88;;;19.44;32.13
78717;BME280;68045;50.042;14.432;2024-03-22T14:12:02;98209.06;;;18.81;33.61
78717;BME280;68045;50.042;14.432;2024-03-22T14:16:03;98180.22;;;18.78;33.71
78717;BME280;68045;50.042;14.432;2024-03-22T14:20:05;98186.03;;;18.85;33.15
78717;BME280;68045;50.042;14.432;2024-03-22T14:24:12;98183.84;;;19.30;32.21
78717;BME280;68045;50.042;14.432;2024-03-22T14:28:14;98172.34;;;19.10;32.64
78717;BME280;68045;50.042;14.432;2024-03-22T14:32:15;98173.41;;;19.09;32.25
78717;BME280;68045;50.042;14.432;2024-03-22T14:36:16;98167.66;;;19.21;32.23
78717;BME280;68045;50.042;14.432;2024-03-22T14:40:17;98154.91;;;18.70;33.14
78717;BME280;68045;50.042;14.432;2024-03-22T14:44:18;98154.47;;;18.34;33.20
78717;BME280;68045;50.042;14.432;2024-03-22T14:48:20;98170.00;;;17.64;33.99
78717;BME280;68045;50.042;14.432;2024-03-22T14:52:21;98143.00;;;17.70;34.22
78717;BME280;68045;50.042;14.432;2024-03-22T14:56:22;98142.06;;;17.51;34.37
78717;BME280;68045;50.042;14.432;2024-03-22T15:00:23;98139.44;;;17.85;34.22
78717;BME280;68045;50.042;14.432;2024-03-22T15:04:27;98143.19;;;17.40;34.56
78717;BME280;68045;50.042;14.432;2024-03-22T15:08:29;98135.50;;;17.33;35.08
78717;BME280;68045;50.042;14.432;2024-03-22T15:12:30;98137.94;;;17.29;35.47
78717;BME280;68045;50.042;14.432;2024-03-22T15:16:31;98128.19;;;17.05;34.88
78717;BME280;68045;50.042;14.432;2024-03-22T15:20:34;98122.13;;;16.94;35.36
78717;BME280;68045;50.042;14.432;2024-03-22T15:24:35;98113.94;;;16.85;36.38
78717;BME280;68045;50.042;14.432;2024-03-22T15:28:36;98112.66;;;16.72;36.44
78717;BME280;68045;50.042;14.432;2024-03-22T15:32:37;98134.19;;;16.76;36.18
78717;BME280;68045;50.042;14.432;2024-03-22T15:36:38;98112.69;;;16.57;35.95
78717;BME280;68045;50.042;14.432;2024-03-22T15:40:40;98106.63;;;16.36;36.26
78717;BME280;68045;50.042;14.432;2024-03-22T15:44:42;98100.81;;;16.14;36.70
78717;BME280;68045;50.042;14.432;2024-03-22T15:48:43;98104.53;;;16.13;36.66
78717;BME280;68045;50.042;14.432;2024-03-22T15:52:45;98097.59;;;16.22;36.83
78717;BME280;68045;50.042;14.432;2024-03-22T15:56:46;98100.56;;;16.10;37.30
78717;BME280;68045;50.042;14.432;2024-03-22T16:00:47;98103.25;;;15.90;39.22
78717;BME280;68045;50.042;14.432;2024-03-22T16:04:50;98091.28;;;15.77;40.19
78717;BME280;68045;50.042;14.432;2024-03-22T16:08:52;98094.72;;;15.78;40.07
78717;BME280;68045;50.042;14.432;2024-03-22T16:12:53;98090.22;;;15.63;40.14
78717;BME280;68045;50.042;14.432;2024-03-22T16:16:55;98085.44;;;15.70;40.63
78717;BME280;68045;50.042;14.432;2024-03-22T16:20:57;98088.06;;;15.60;41.13
78717;BME280;68045;50.042;14.432;2024-03-22T16:24:59;98078.50;;;15.44;41.76
78717;BME280;68045;50.042;14.432;2024-03-22T16:29:00;98074.75;;;15.50;41.46
78717;BME280;68045;50.042;14.432;2024-03-22T16:33:01;98079.28;;;15.34;42.29
78717;BME280;68045;50.042;14.432;2024-03-22T16:37:03;98075.81;;;15.23;42.24
78717;BME280;68045;50.042;14.432;2024-03-22T16:41:08;98077.41;;;15.09;42.68
78717;BME280;68045;50.042;14.432;2024-03-22T16:45:09;98061.94;;;15.01;42.70
78717;BME280;68045;50.042;14.432;2024-03-22T16:49:10;98062.47;;;14.88;43.10
78717;BME280;68045;50.042;14.432;2024-03-22T16:53:11;98064.88;;;14.94;43.26
78717;BME280;68045;50.042;14.432;2024-03-22T16:57:12;98074.72;;;14.99;43.43
78717;BME280;68045;50.042;14.432;2024-03-22T17:01:13;98074.97;;;14.92;43.25
78717;BME280;68045;50.042;14.432;2024-03-22T17:05:14;98071.25;;;14.93;43.15
78717;BME280;68045;50.042;14.432;2024-03-22T17:09:17;98075.47;;;14.84;43.79
78717;BME280;68045;50.042;14.432;2024-03-22T17:13:18;98064.06;;;14.89;44.05
78717;BME280;68045;50.042;14.432;2024-03-22T17:17:19;98061.06;;;14.65;44.29
78717;BME280;68045;50.042;14.432;2024-03-22T17:21:22;98054.69;;;14.55;44.69
78717;BME280;68045;50.042;14.432;2024-03-22T17:25:24;98049.38;;;14.66;44.28
78717;BME280;68045;50.042;14.432;2024-03-22T17:29:25;98059.72;;;14.57;44.72
78717;BME280;68045;50.042;14.432;2024-03-22T17:33:26;98064.53;;;14.60;44.86
78717;BME280;68045;50.042;14.432;2024-03-22T17:37:27;98056.78;;;14.48;45.00
78717;BME280;68045;50.042;14.432;2024-03-22T17:41:28;98061.03;;;14.49;44.88
78717;BME280;68045;50.042;14.432;2024-03-22T17:45:30;98057.03;;;14.47;45.34
78717;BME280;68045;50.042;14.432;2024-03-22T17:49:31;98061.22;;;14.38;45.44
78717;BME280;68045;50.042;14.432;2024-03-22T17:53:34;98054.25;;;14.26;45.81
78717;BME280;68045;50.042;14.432;2024-03-22T17:57:35;98060.59;;;14.20;45.88
78717;BME280;68045;50.042;14.432;2024-03-22T18:01:36;98051.00;;;14.14;46.25
78717;BME280;68045;50.042;14.432;2024-03-22T18:05:37;98061.63;;;14.14;46.39
78717;BME280;68045;50.042;14.432;2024-03-22T18:09:38;98053.75;;;14.35;46.25
78717;BME280;68045;50.042;14.432;2024-03-22T18:13:40;98048.94;;;14.26;46.53
78717;BME280;68045;50.042;14.432;2024-03-22T18:17:42;98042.84;;;14.26;46.72
78717;BME280;68045;50.042;14.432;2024-03-22T18:21:44;98035.59;;;14.06;47.19
78717;BME280;68045;50.042;14.432;2024-03-22T18:25:46;98039.03;;;14.07;47.42
78717;BME280;68045;50.042;14.432;2024-03-22T18:29:48;98034.00;;;14.05;47.81
78717;BME280;68045;50.042;14.432;2024-03-22T18:33:49;98027.63;;;14.06;47.80
78717;BME280;68045;50.042;14.432;2024-03-22T18:37:50;98025.75;;;14.07;48.23
78717;BME280;68045;50.042;14.432;2024-03-22T18:41:51;98020.19;;;14.08;48.63
78717;BME280;68045;50.042;14.432;2024-03-22T18:45:53;98013.59;;;14.11;48.30
78717;BME280;68045;50.042;14.432;2024-03-22T18:49:54;98004.28;;;14.08;48.62
78717;BME280;68045;50.042;14.432;2024-03-22T18:53:57;97999.50;;;14.05;49.05
78717;BME280;68045;50.042;14.432;2024-03-22T18:57:59;98000.25;;;13.95;49.54
78717;BME280;68045;50.042;14.432;2024-03-22T19:02:01;97998.66;;;13.99;50.02
78717;BME280;68045;50.042;14.432;2024-03-22T19:06:03;97994.72;;;14.07;50.24
78717;BME280;68045;50.042;14.432;2024-03-22T19:10:04;97981.75;;;14.11;50.50
78717;BME280;68045;50.042;14.432;2024-03-22T19:14:08;97981.69;;;14.00;50.55
78717;BME280;68045;50.042;14.432;2024-03-22T19:18:09;97977.97;;;14.01;50.31
78717;BME280;68045;50.042;14.432;2024-03-22T19:22:11;97974.00;;;14.04;50.17
78717;BME280;68045;50.042;14.432;2024-03-22T19:26:13;97964.94;;;13.90;50.35
78717;BME280;68045;50.042;14.432;2024-03-22T19:30:14;97965.66;;;13.80;50.81
78717;BME280;68045;50.042;14.432;2024-03-22T19:34:15;97964.34;;;13.78;50.88
78717;BME280;68045;50.042;14.432;2024-03-22T19:38:16;97950.53;;;13.76;51.42
78717;BME280;68045;50.042;14.432;2024-03-22T19:42:18;97956.06;;;13.69;51.59
78717;BME280;68045;50.042;14.432;2024-03-22T19:46:19;97941.53;;;13.77;51.55
78717;BME280;68045;50.042;14.432;2024-03-22T19:50:20;97946.28;;;13.80;51.39
78717;BME280;68045;50.042;14.432;2024-03-22T19:54:21;97945.47;;;13.74;51.22
78717;BME280;68045;50.042;14.432;2024-03-22T19:58:23;97933.03;;;13.74;51.14
78717;BME280;68045;50.042;14.432;2024-03-22T20:02:24;97925.06;;;13.80;51.38
78717;BME280;68045;50.042;14.432;2024-03-22T20:06:25;97922.38;;;13.69;51.71
78717;BME280;68045;50.042;14.432;2024-03-22T20:10:26;97918.19;;;13.79;51.32
78717;BME280;68045;50.042;14.432;2024-03-22T20:14:27;97930.44;;;13.95;53.53
78717;BME280;68045;50.042;14.432;2024-03-22T20:18:29;97921.22;;;14.13;51.86
78717;BME280;68045;50.042;14.432;2024-03-22T20:22:29;97922.56;;;14.15;52.33
78717;BME280;68045;50.042;14.432;2024-03-22T20:26:32;97920.88;;;13.89;51.03
78717;BME280;68045;50.042;14.432;2024-03-22T20:30:33;97921.91;;;13.78;51.82
78717;BME280;68045;50.042;14.432;2024-03-22T20:34:35;97926.34;;;13.67;52.40
